Time;durP1;ratioP1;P1;durP2;ratioP2;P2;SDS_P1;SDS_P2;PMS_P1;PMS_P2;Temp;Humidity;BMP_temperature;BMP_pressure;BME280_temperature;BME280_humidity;BME280_pressure;Samples;Min_cycle;Max_cycle;Signal;HPM_P1;HPM_P2
2022/04/15 18:09:11;;;;;;;3.95;1.90;;;10.90;74.90;;;;;;5139909;27;20135;-62
2022/04/15 18:11:37;;;;;;;3.47;2.30;;;11.00;77.40;;;;;;5140704;27;20053;-59
2022/04/15 18:14:03;;;;;;;3.38;2.78;;;11.10;79.00;;;;;;5132262;27;20039;-60
2022/04/15 18:16:29;;;;;;;3.55;2.45;;;11.20;79.60;;;;;;5119496;27;20034;-60
2022/04/15 18:18:54;;;;;;;2.75;2.10;;;11.30;79.70;;;;;;5126555;27;20031;-60
2022/04/15 18:21:20;;;;;;;3.60;2.35;;;11.50;79.70;;;;;;5146748;27;20358;-60
2022/04/15 18:23:46;;;;;;;5.82;2.47;;;11.60;79.40;;;;;;5129132;27;20417;-60
2022/04/15 18:26:12;;;;;;;4.07;2.00;;;11.70;79.10;;;;;;5136582;27;20032;-60
2022/04/15 18:28:37;;;;;;;2.85;1.83;;;11.80;79.00;;;;;;5146602;27;20534;-60
2022/04/15 18:31:03;;;;;;;2.63;2.05;;;11.90;78.60;;;;;;5146067;27;20053;-60
2022/04/15 18:33:32;;;;;;;2.95;1.75;;;11.90;77.90;;;;;;5146819;27;20446;-60
2022/04/15 18:35:58;;;;;;;2.88;1.45;;;12.00;77.80;;;;;;5145620;27;20060;-60
2022/04/15 18:38:24;;;;;;;3.55;2.70;;;12.00;77.50;;;;;;5146761;27;20042;-60
2022/04/15 18:40:50;;;;;;;2.40;2.15;;;12.10;77.10;;;;;;5146847;27;20458;-60
2022/04/15 18:43:15;;;;;;;3.00;2.42;;;12.10;76.90;;;;;;5146768;27;20092;-60
2022/04/15 18:45:43;;;;;;;3.53;2.10;;;12.10;76.40;;;;;;5127789;27;20574;-60
2022/04/15 18:53:39;;;;;;;2.67;1.85;;;12.20;76.00;;;;;;5125813;27;20034;-59
2022/04/15 18:56:05;;;;;;;2.80;1.88;;;12.20;75.80;;;;;;5133199;27;20028;-60
2022/04/15 18:58:30;;;;;;;7.07;2.58;;;12.20;75.60;;;;;;5133231;27;20086;-60
2022/04/15 19:00:59;;;;;;;2.95;2.10;;;12.20;75.60;;;;;;5139880;27;20372;-60
2022/04/15 19:03:25;;;;;;;3.10;2.13;;;12.20;75.40;;;;;;5143157;27;20098;-59
2022/04/15 19:05:50;;;;;;;3.88;1.80;;;12.20;75.40;;;;;;5127126;27;20135;-59
2022/04/15 19:08:16;;;;;;;3.80;2.45;;;12.20;75.30;;;;;;5143003;27;20405;-59
2022/04/15 19:10:42;;;;;;;2.17;1.60;;;12.20;75.10;;;;;;5144551;27;20023;-59
2022/04/15 19:13:08;;;;;;;5.88;2.63;;;12.20;74.80;;;;;;5145048;27;20027;-59
2022/04/15 19:15:34;;;;;;;2.72;2.17;;;12.20;74.70;;;;;;5144884;27;20385;-61
2022/04/15 19:18:02;;;;;;;2.30;1.92;;;12.20;74.60;;;;;;5126819;27;20030;-61
2022/04/15 19:20:27;;;;;;;2.38;1.95;;;12.30;74.60;;;;;;5121744;27;20114;-61
2022/04/15 19:22:53;;;;;;;2.28;1.67;;;12.20;74.60;;;;;;5132583;27;20553;-61
2022/04/15 19:25:19;;;;;;;2.30;1.90;;;12.20;74.60;;;;;;5114021;27;20046;-59
2022/04/15 19:27:47;;;;;;;3.60;2.25;;;12.20;74.50;;;;;;5132651;27;20362;-60
2022/04/15 19:30:14;;;;;;;2.25;1.92;;;12.20;75.20;;;;;;5132359;27;20020;-60
2022/04/15 19:32:43;;;;;;;3.22;1.73;;;12.20;74.40;;;;;;5132759;27;20118;-59
2022/04/15 19:35:08;;;;;;;5.07;2.53;;;12.20;74.40;;;;;;5114540;27;20393;-59
2022/04/15 19:37:34;;;;;;;4.88;2.03;;;12.20;74.30;;;;;;5132197;27;20031;-59
2022/04/15 19:40:00;;;;;;;3.65;2.15;;;12.20;74.20;;;;;;5111298;27;20035;-59
2022/04/15 19:42:25;;;;;;;2.40;2.20;;;12.20;74.20;;;;;;5131985;27;20030;-60
2022/04/15 19:44:53;;;;;;;3.47;2.17;;;12.20;74.10;;;;;;5131832;27;20480;-59
2022/04/15 19:47:19;;;;;;;2.13;1.92;;;12.20;74.80;;;;;;5129707;27;20036;-59
2022/04/15 19:49:45;;;;;;;2.60;2.20;;;12.20;74.10;;;;;;5132046;27;20080;-59
2022/04/15 19:52:11;;;;;;;5.30;2.03;;;12.20;74.00;;;;;;5113031;27;20138;-60
2022/04/15 19:54:38;;;;;;;1.63;1.52;;;12.20;73.90;;;;;;5106136;27;20429;-60
2022/04/15 20:02:32;;;;;;;1.92;1.75;;;12.10;73.70;;;;;;5130329;27;20122;-60
2022/04/15 20:04:57;;;;;;;3.53;2.10;;;12.10;73.80;;;;;;5130283;27;20118;-61
2022/04/15 20:07:23;;;;;;;2.17;1.88;;;12.10;73.80;;;;;;5106172;27;20092;-59
2022/04/15 20:09:49;;;;;;;2.88;1.52;;;12.10;73.90;;;;;;5124887;27;20020;-60
2022/04/15 20:12:20;;;;;;;2.35;1.92;;;12.10;73.90;;;;;;5120238;27;20062;-60
2022/04/15 20:14:46;;;;;;;3.17;1.98;;;12.10;73.80;;;;;;5128304;27;20566;-60
2022/04/15 20:17:12;;;;;;;4.57;2.53;;;12.00;73.70;;;;;;5120409;27;20118;-60
2022/04/15 20:19:37;;;;;;;2.25;2.08;;;12.00;73.80;;;;;;5127520;27;20054;-60
2022/04/15 20:22:03;;;;;;;2.92;2.25;;;11.90;73.80;;;;;;5124372;27;20084;-60
2022/04/15 20:24:32;;;;;;;2.30;2.10;;;11.90;73.60;;;;;;5126707;27;20026;-59
2022/04/15 20:26:58;;;;;;;1.73;1.52;;;11.90;73.50;;;;;;5099907;27;20030;-60
2022/04/15 20:29:24;;;;;;;2.97;1.90;;;11.90;73.60;;;;;;5130738;27;20031;-61
2022/04/15 20:31:49;;;;;;;5.72;2.78;;;11.80;73.50;;;;;;5121946;27;20098;-61
2022/04/15 20:34:15;;;;;;;2.50;2.05;;;11.80;73.40;;;;;;5130799;27;20011;-61
2022/04/15 20:36:41;;;;;;;2.30;1.77;;;11.80;73.40;;;;;;5131025;27;20467;-60
2022/04/15 20:39:06;;;;;;;2.72;1.95;;;11.80;73.30;;;;;;5125735;27;20475;-60
2022/04/15 20:41:32;;;;;;;2.10;1.90;;;11.90;73.10;;;;;;5109924;28;20293;-61
2022/04/15 20:43:58;;;;;;;2.65;2.10;;;11.90;73.10;;;;;;5115646;27;20459;-61
2022/04/15 20:46:23;;;;;;;4.32;2.20;;;11.90;72.90;;;;;;5110445;27;20027;-60
2022/04/15 20:51:34;;;;;;;4.07;2.40;;;11.90;72.70;;;;;;5121009;27;20031;-61
2022/04/15 20:54:02;;;;;;;2.75;2.40;;;11.90;72.80;;;;;;5108922;27;20486;-60
2022/04/15 20:56:28;;;;;;;3.60;1.88;;;11.90;72.80;;;;;;5121374;27;20049;-59
2022/04/15 20:58:53;;;;;;;3.15;2.40;;;11.80;72.80;;;;;;5113590;27;20027;-59
2022/04/15 21:01:20;;;;;;;3.15;2.13;;;11.80;72.80;;;;;;5116281;27;20381;-59
2022/04/15 21:03:46;;;;;;;2.70;2.47;;;11.80;72.80;;;;;;5124919;27;20031;-60
2022/04/15 21:06:11;;;;;;;2.80;2.15;;;11.80;72.80;;;;;;5126516;27;20031;-59
2022/04/15 21:08:38;;;;;;;4.00;2.45;;;11.80;72.80;;;;;;5120502;27;20053;-59
2022/04/15 21:11:04;;;;;;;4.25;2.03;;;11.80;72.80;;;;;;5120396;27;20058;-60
2022/04/15 21:13:31;;;;;;;4.65;2.08;;;11.80;72.80;;;;;;5118820;27;20030;-60
2022/04/15 21:15:57;;;;;;;4.90;2.55;;;11.80;72.80;;;;;;5124548;27;20054;-59
2022/04/15 21:18:23;;;;;;;3.00;2.40;;;11.80;72.70;;;;;;5110253;27;20043;-59
2022/04/15 21:20:49;;;;;;;2.80;1.55;;;11.80;72.70;;;;;;5129378;27;20496;-60
2022/04/15 21:23:14;;;;;;;2.97;2.03;;;11.70;72.60;;;;;;5128510;27;20440;-59
2022/04/15 21:25:40;;;;;;;2.55;2.35;;;11.70;72.70;;;;;;5111799;27;20456;-60
2022/04/15 21:28:06;;;;;;;2.20;2.00;;;11.70;72.60;;;;;;5130065;27;20453;-59
2022/04/15 21:30:31;;;;;;;2.83;2.50;;;11.70;72.50;;;;;;5129754;27;20494;-59
2022/04/15 21:32:57;;;;;;;2.78;1.63;;;11.70;72.60;;;;;;5129575;27;20427;-59
2022/04/15 21:35:23;;;;;;;4.40;2.65;;;11.70;72.60;;;;;;5110372;27;20030;-60
2022/04/15 21:37:48;;;;;;;3.00;2.38;;;11.60;72.60;;;;;;5128893;27;20027;-61
2022/04/15 21:40:14;;;;;;;2.30;1.73;;;11.60;72.50;;;;;;5129723;27;20512;-60
2022/04/15 21:42:40;;;;;;;5.95;3.30;;;11.60;72.50;;;;;;5111517;28;20034;-60
2022/04/15 21:45:09;;;;;;;2.33;2.13;;;11.60;72.40;;;;;;5129201;27;20031;-59
2022/04/15 21:47:35;;;;;;;2.47;2.28;;;11.60;72.40;;;;;;5129233;27;20209;-59
2022/04/15 21:50:01;;;;;;;2.03;1.92;;;11.60;72.40;;;;;;5129511;27;20035;-59
2022/04/15 21:52:33;;;;;;;2.50;2.03;;;11.50;72.40;;;;;;5110929;27;20047;-59
2022/04/15 21:55:04;;;;;;;2.78;2.15;;;11.50;72.30;;;;;;5129523;27;20030;-59
2022/04/15 21:57:30;;;;;;;2.92;2.25;;;11.50;72.40;;;;;;5129342;27;20063;-59
2022/04/15 21:59:56;;;;;;;4.30;2.42;;;11.40;72.40;;;;;;5129911;27;20526;-59
2022/04/15 22:02:22;;;;;;;3.78;2.55;;;11.40;72.50;;;;;;5110263;27;20035;-59
2022/04/15 22:04:48;;;;;;;2.38;2.17;;;11.40;72.60;;;;;;5108706;28;20027;-59
2022/04/15 22:07:15;;;;;;;3.00;2.70;;;11.40;72.50;;;;;;5108876;28;20456;-59
2022/04/15 22:09:47;;;;;;;3.53;2.17;;;11.40;72.50;;;;;;5126856;28;20477;-59
2022/04/15 22:12:14;;;;;;;5.28;2.97;;;11.50;72.50;;;;;;5129292;28;20122;-59
2022/04/15 22:14:42;;;;;;;3.17;2.22;;;11.40;72.50;;;;;;5129474;27;21011;-61
2022/04/15 22:17:12;;;;;;;3.42;2.55;;;11.40;72.50;;;;;;5128859;27;20015;-59
2022/04/15 22:19:40;;;;;;;3.67;2.40;;;11.40;72.50;;;;;;5129508;27;20474;-60
2022/04/15 22:22:11;;;;;;;2.72;2.30;;;11.40;72.50;;;;;;5110372;27;20031;-62
2022/04/15 22:24:38;;;;;;;3.95;2.65;;;11.40;72.50;;;;;;5129164;28;20057;-62
2022/04/15 22:27:05;;;;;;;3.63;2.50;;;11.40;72.50;;;;;;5128618;28;20024;-61
2022/04/15 22:29:31;;;;;;;3.90;2.33;;;11.40;72.40;;;;;;5128904;28;20035;-62
2022/04/15 22:31:59;;;;;;;3.70;2.63;;;11.40;72.40;;;;;;5128904;28;20023;-61
2022/04/15 22:34:29;;;;;;;5.03;2.72;;;11.40;72.40;;;;;;5117744;27;20107;-61
2022/04/15 22:36:55;;;;;;;3.15;2.40;;;11.40;72.30;;;;;;5118969;27;20023;-58
2022/04/15 22:39:22;;;;;;;4.60;2.70;;;11.40;72.30;;;;;;5126741;27;20027;-59
2022/04/15 22:41:51;;;;;;;4.82;3.20;;;11.40;72.30;;;;;;5101543;28;20497;-59
2022/04/15 22:44:18;;;;;;;3.50;2.92;;;11.40;72.30;;;;;;5116373;27;20023;-59
2022/04/15 22:46:46;;;;;;;3.13;2.65;;;11.40;72.30;;;;;;5108819;28;20554;-62
2022/04/15 22:49:13;;;;;;;4.65;2.40;;;11.40;72.30;;;;;;5107238;28;20409;-62
2022/04/15 22:51:39;;;;;;;5.20;2.60;;;11.40;72.30;;;;;;5111436;27;20043;-62
2022/04/15 22:54:05;;;;;;;3.65;2.45;;;11.40;72.30;;;;;;5117737;27;20084;-61
2022/04/15 22:59:15;;;;;;;3.05;2.75;;;11.40;72.30;;;;;;5130917;27;20030;-59
2022/04/15 23:01:40;;;;;;;7.05;2.63;;;11.40;72.30;;;;;;5125864;27;20486;-59
2022/04/15 23:04:09;;;;;;;7.35;2.83;;;11.40;72.30;;;;;;5107742;27;20722;-61
2022/04/15 23:06:34;;;;;;;4.95;2.83;;;11.30;72.90;;;;;;5105351;28;20032;-61
2022/04/15 23:09:00;;;;;;;3.85;3.10;;;11.20;72.20;;;;;;5113688;27;20063;-61
2022/04/15 23:11:27;;;;;;;4.82;3.08;;;11.20;72.20;;;;;;5129521;27;20019;-62
2022/04/15 23:13:52;;;;;;;3.53;2.83;;;11.10;72.20;;;;;;5129468;27;20350;-62
2022/04/15 23:16:18;;;;;;;2.95;2.35;;;11.10;72.10;;;;;;5131087;27;20034;-61
2022/04/15 23:18:48;;;;;;;3.70;2.95;;;11.00;72.10;;;;;;5115514;27;20106;-59
2022/04/15 23:21:14;;;;;;;2.60;2.30;;;11.00;72.10;;;;;;5115760;27;20080;-58
2022/04/15 23:23:41;;;;;;;4.00;2.63;;;10.90;72.00;;;;;;5131595;27;20030;-58
2022/04/15 23:26:07;;;;;;;4.65;2.88;;;10.90;72.10;;;;;;5132081;27;20051;-58
2022/04/15 23:28:34;;;;;;;4.03;3.60;;;10.80;72.10;;;;;;5131122;27;20420;-58
2022/04/15 23:31:00;;;;;;;3.55;3.15;;;10.80;72.20;;;;;;5130831;27;20065;-58
2022/04/15 23:33:26;;;;;;;5.50;2.90;;;10.70;72.20;;;;;;5108155;27;20114;-58
2022/04/15 23:35:52;;;;;;;4.15;2.72;;;10.70;72.40;;;;;;5131689;27;20441;-58
2022/04/15 23:38:18;;;;;;;4.65;2.80;;;10.70;72.50;;;;;;5128264;27;20047;-58
2022/04/15 23:40:44;;;;;;;4.70;2.83;;;10.60;72.50;;;;;;5131983;27;20041;-58
2022/04/15 23:43:10;;;;;;;3.50;2.85;;;10.60;72.50;;;;;;5121337;27;20082;-58
2022/04/15 23:48:32;;;;;;;6.47;3.20;;;10.50;72.40;;;;;;5131947;27;20031;-58
2022/04/15 23:48:33;;;;;;;3.45;3.08;;;10.50;72.50;;;;;;5130146;27;20039;-58
2022/04/15 23:51:02;;;;;;;4.28;2.70;;;10.50;72.60;;;;;;5128904;27;20027;-58
2022/04/15 23:53:27;;;;;;;4.13;2.92;;;10.40;72.70;;;;;;5111911;27;20396;-58
2022/04/15 23:55:53;;;;;;;3.88;2.72;;;10.40;72.70;;;;;;5131509;27;20023;-58
2022/04/15 23:58:19;;;;;;;5.20;3.53;;;10.30;72.70;;;;;;5131869;27;20082;-58
